Time;durP1;ratioP1;P1;durP2;ratioP2;P2;SDS_P1;SDS_P2;PMS_P1;PMS_P2;Temp;Humidity;BMP_temperature;BMP_pressure;BME280_temperature;BME280_humidity;BME280_pressure;Samples;Min_cycle;Max_cycle;Signal;HPM_P1;HPM_P2
2023/08/20 00:01:28;;;;;;;758.90;464.52;;;;;;;;;;7301180;19;140997;-75
2023/08/20 00:03:55;;;;;;;760.40;470.90;;;;;;;;;;7301274;19;140594;-76
2023/08/20 00:06:23;;;;;;;735.00;465.75;;;;;;;;;;7302179;19;141119;-76
2023/08/20 00:08:50;;;;;;;747.30;470.58;;;;;;;;;;7302562;19;141264;-76
2023/08/20 00:11:17;;;;;;;770.30;478.55;;;;;;;;;;7301525;19;140791;-74
2023/08/20 00:13:44;;;;;;;740.38;466.48;;;;;;;;;;7302006;19;140525;-76
2023/08/20 00:16:11;;;;;;;736.00;474.17;;;;;;;;;;7300083;19;141290;-76
2023/08/20 00:24:23;;;;;;;713.95;433.05;;;;;;;;;;7302426;19;140491;-74
2023/08/20 00:26:50;;;;;;;722.95;458.15;;;;;;;;;;7301169;19;141320;-76
2023/08/20 00:29:17;;;;;;;758.45;466.90;;;;;;;;;;7300878;19;141241;-73
2023/08/20 00:31:44;;;;;;;747.78;459.83;;;;;;;;;;7301438;19;140671;-74
2023/08/20 00:34:11;;;;;;;752.25;465.65;;;;;;;;;;7300853;19;140639;-76
2023/08/20 00:36:38;;;;;;;759.47;470.83;;;;;;;;;;7301448;19;141170;-76
2023/08/20 00:39:05;;;;;;;752.30;467.42;;;;;;;;;;7299608;19;142488;-76
2023/08/20 00:41:32;;;;;;;723.78;458.70;;;;;;;;;;7300541;19;140650;-76
2023/08/20 00:43:59;;;;;;;722.63;459.00;;;;;;;;;;7300835;19;140490;-76
2023/08/20 00:46:27;;;;;;;746.85;464.40;;;;;;;;;;7300163;19;140924;-76
2023/08/20 00:48:55;;;;;;;750.20;461.08;;;;;;;;;;7300037;19;142656;-76
2023/08/20 00:51:22;;;;;;;722.17;457.73;;;;;;;;;;7301180;19;140457;-76
2023/08/20 00:53:49;;;;;;;748.25;469.85;;;;;;;;;;7301433;19;140704;-76
2023/08/20 00:56:17;;;;;;;724.90;462.13;;;;;;;;;;7300569;19;140600;-76
2023/08/20 00:58:44;;;;;;;748.22;457.77;;;;;;;;;;7300776;19;142441;-76
2023/08/20 01:01:11;;;;;;;742.97;467.67;;;;;;;;;;7300744;19;140903;-76
2023/08/20 01:03:38;;;;;;;730.72;458.73;;;;;;;;;;7300285;19;140771;-73
2023/08/20 01:06:13;;;;;;;751.42;462.00;;;;;;;;;;7300088;19;141122;-76
2023/08/20 01:08:40;;;;;;;751.95;459.50;;;;;;;;;;7300519;19;142644;-76
2023/08/20 01:11:16;;;;;;;736.22;455.20;;;;;;;;;;7299879;19;140502;-76
2023/08/20 01:13:43;;;;;;;753.65;462.80;;;;;;;;;;7300855;19;140683;-76
2023/08/20 01:16:10;;;;;;;756.30;465.05;;;;;;;;;;7300678;19;141679;-76
2023/08/20 01:18:37;;;;;;;744.58;461.83;;;;;;;;;;7299627;19;141935;-76
2023/08/20 01:21:10;;;;;;;761.08;469.35;;;;;;;;;;7299960;19;140713;-76
2023/08/20 01:23:43;;;;;;;760.25;475.05;;;;;;;;;;7299682;19;140532;-76
2023/08/20 01:26:20;;;;;;;750.72;465.55;;;;;;;;;;7299020;19;141265;-75
2023/08/20 01:28:47;;;;;;;756.67;469.67;;;;;;;;;;7300145;19;141029;-76
2023/08/20 01:31:15;;;;;;;752.00;461.58;;;;;;;;;;7299662;19;140923;-76
2023/08/20 01:33:42;;;;;;;751.42;461.38;;;;;;;;;;7300063;19;140362;-73
2023/08/20 01:36:09;;;;;;;752.75;461.30;;;;;;;;;;7299746;19;141620;-76
2023/08/20 01:38:40;;;;;;;759.75;468.05;;;;;;;;;;7299287;19;141780;-77
2023/08/20 01:41:07;;;;;;;;;;;;;;;;;;7300162;19;140604;-77
2023/08/20 01:43:34;;;;;;;767.53;479.30;;;;;;;;;;7299480;19;140415;-77
2023/08/20 01:46:01;;;;;;;765.55;476.55;;;;;;;;;;7299620;19;140805;-76
2023/08/20 01:48:28;;;;;;;732.47;459.92;;;;;;;;;;7301991;19;140998;-76
2023/08/20 01:50:55;;;;;;;753.92;460.67;;;;;;;;;;7299512;19;140565;-76
2023/08/20 01:53:22;;;;;;;744.78;457.52;;;;;;;;;;7299195;19;140679;-76
2023/08/20 01:55:49;;;;;;;756.40;465.60;;;;;;;;;;7299005;19;140450;-74
2023/08/20 01:58:16;;;;;;;747.67;464.17;;;;;;;;;;7299230;19;140643;-74
2023/08/20 02:00:47;;;;;;;767.97;473.95;;;;;;;;;;7297312;19;141074;-74
2023/08/20 02:03:17;;;;;;;763.97;474.10;;;;;;;;;;7306257;19;140828;-74
2023/08/20 02:05:44;;;;;;;743.75;470.92;;;;;;;;;;7305515;19;141111;-77
2023/08/20 02:08:11;;;;;;;744.28;468.10;;;;;;;;;;7305547;19;141833;-76
2023/08/20 02:10:38;;;;;;;733.95;458.30;;;;;;;;;;7304976;19;140770;-76
2023/08/20 02:13:07;;;;;;;729.90;458.90;;;;;;;;;;7305099;19;140366;-76
2023/08/20 02:15:34;;;;;;;749.10;456.98;;;;;;;;;;7305459;19;141369;-76
2023/08/20 02:18:01;;;;;;;734.78;458.08;;;;;;;;;;7303445;19;142017;-77
2023/08/20 02:20:28;;;;;;;754.15;466.13;;;;;;;;;;7305396;19;140523;-74
2023/08/20 02:22:55;;;;;;;733.47;452.08;;;;;;;;;;7305654;19;140487;-76
2023/08/20 02:25:23;;;;;;;735.92;455.05;;;;;;;;;;7305322;19;141165;-76
2023/08/20 02:27:51;;;;;;;717.90;450.42;;;;;;;;;;7304567;19;140861;-76
2023/08/20 02:30:18;;;;;;;721.70;456.67;;;;;;;;;;7305466;19;140621;-76
2023/08/20 02:32:45;;;;;;;749.38;460.83;;;;;;;;;;7305491;19;140539;-75
2023/08/20 02:35:14;;;;;;;762.40;470.63;;;;;;;;;;7307691;19;140832;-75
2023/08/20 02:37:41;;;;;;;752.42;465.05;;;;;;;;;;7309282;19;141412;-75
2023/08/20 02:40:10;;;;;;;739.63;465.60;;;;;;;;;;7305154;19;140424;-76
2023/08/20 02:42:37;;;;;;;739.50;468.08;;;;;;;;;;7304553;19;140643;-76
2023/08/20 02:45:04;;;;;;;751.70;472.30;;;;;;;;;;7304764;19;140615;-75
2023/08/20 02:47:31;;;;;;;753.53;482.55;;;;;;;;;;7304261;19;142070;-75
2023/08/20 02:49:59;;;;;;;744.65;466.30;;;;;;;;;;7304859;19;140437;-76
2023/08/20 02:52:26;;;;;;;764.72;472.45;;;;;;;;;;7303247;19;140726;-76
2023/08/20 02:54:53;;;;;;;756.78;479.83;;;;;;;;;;7303901;19;142034;-76
2023/08/20 02:57:21;;;;;;;768.83;477.88;;;;;;;;;;7303740;19;142700;-76
2023/08/20 02:59:48;;;;;;;718.15;441.77;;;;;;;;;;7303983;19;140687;-76
2023/08/20 03:02:15;;;;;;;700.65;438.98;;;;;;;;;;7303769;19;140544;-76
2023/08/20 03:04:42;;;;;;;740.63;447.73;;;;;;;;;;7304172;19;140809;-76
2023/08/20 03:07:09;;;;;;;738.80;446.20;;;;;;;;;;7303610;19;141805;-76
2023/08/20 03:09:36;;;;;;;726.85;446.30;;;;;;;;;;7303828;19;140447;-76
2023/08/20 03:12:04;;;;;;;743.10;450.92;;;;;;;;;;7302939;19;140458;-76
2023/08/20 03:14:31;;;;;;;742.88;451.00;;;;;;;;;;7303621;19;141388;-76
2023/08/20 03:16:58;;;;;;;728.15;450.40;;;;;;;;;;7303357;19;142868;-76
2023/08/20 03:19:25;;;;;;;745.83;454.85;;;;;;;;;;7303730;19;140583;-76
2023/08/20 03:21:52;;;;;;;729.72;453.40;;;;;;;;;;7303782;19;140666;-76
2023/08/20 03:24:19;;;;;;;735.15;450.52;;;;;;;;;;7303247;19;140818;-76
2023/08/20 03:26:47;;;;;;;746.45;453.67;;;;;;;;;;7303088;19;141842;-76
2023/08/20 03:29:14;;;;;;;750.38;458.88;;;;;;;;;;7303451;19;140547;-76
2023/08/20 03:31:41;;;;;;;750.08;458.98;;;;;;;;;;7303111;19;140658;-76
2023/08/20 03:34:09;;;;;;;742.67;457.55;;;;;;;;;;7303144;19;141937;-76
2023/08/20 03:36:36;;;;;;;747.08;452.65;;;;;;;;;;7302823;19;142400;-76
2023/08/20 03:39:03;;;;;;;742.10;450.77;;;;;;;;;;7303025;19;140410;-76
2023/08/20 03:41:30;;;;;;;738.13;459.20;;;;;;;;;;7302454;19;140686;-76
2023/08/20 03:43:57;;;;;;;750.13;461.80;;;;;;;;;;7302405;19;141309;-76
2023/08/20 03:46:24;;;;;;;744.28;457.67;;;;;;;;;;7302334;19;141960;-76
2023/08/20 03:48:52;;;;;;;724.60;455.95;;;;;;;;;;7302960;19;140569;-76
2023/08/20 03:51:19;;;;;;;725.65;458.95;;;;;;;;;;7302598;19;140631;-76
2023/08/20 03:53:46;;;;;;;727.38;460.10;;;;;;;;;;7302550;19;140986;-76
2023/08/20 03:56:13;;;;;;;742.85;469.63;;;;;;;;;;7301778;19;143095;-76
2023/08/20 03:58:39;;;;;;;733.78;463.35;;;;;;;;;;7302073;19;140554;-76
2023/08/20 04:01:07;;;;;;;750.70;470.48;;;;;;;;;;7301837;19;141087;-76
2023/08/20 04:03:34;;;;;;;759.97;474.08;;;;;;;;;;7302403;19;141797;-76
2023/08/20 04:06:05;;;;;;;741.25;472.90;;;;;;;;;;7301738;19;141214;-76
2023/08/20 04:08:32;;;;;;;737.65;461.75;;;;;;;;;;7302369;19;140866;-76
2023/08/20 04:10:59;;;;;;;737.22;466.83;;;;;;;;;;7301636;19;140558;-76
2023/08/20 04:13:26;;;;;;;754.85;467.02;;;;;;;;;;7301183;19;140533;-76
2023/08/20 04:15:53;;;;;;;729.00;463.30;;;;;;;;;;7301457;19;142919;-76
2023/08/20 04:18:20;;;;;;;721.38;458.33;;;;;;;;;;7301689;19;140648;-76
2023/08/20 04:20:49;;;;;;;758.30;470.08;;;;;;;;;;7301013;19;140741;-75
2023/08/20 04:23:16;;;;;;;722.72;442.30;;;;;;;;;;7301657;19;141544;-76
2023/08/20 04:25:44;;;;;;;738.40;446.88;;;;;;;;;;7299597;19;141538;-76
2023/08/20 04:28:12;;;;;;;728.40;441.05;;;;;;;;;;7300998;19;140652;-76
2023/08/20 04:30:39;;;;;;;726.50;435.52;;;;;;;;;;7299574;19;140704;-76
2023/08/20 04:33:06;;;;;;;715.42;441.90;;;;;;;;;;7300980;19;141858;-76
2023/08/20 04:35:33;;;;;;;696.80;436.23;;;;;;;;;;7301033;19;142672;-76
2023/08/20 04:38:00;;;;;;;701.53;438.73;;;;;;;;;;7300861;19;140356;-76
2023/08/20 04:40:27;;;;;;;703.85;438.45;;;;;;;;;;7300827;19;141164;-76
2023/08/20 04:42:54;;;;;;;713.45;437.65;;;;;;;;;;7300035;19;141064;-76
2023/08/20 04:45:21;;;;;;;719.95;446.05;;;;;;;;;;7300367;19;142211;-76
2023/08/20 04:47:48;;;;;;;737.45;443.52;;;;;;;;;;7300417;19;140371;-76
2023/08/20 04:50:16;;;;;;;741.70;450.77;;;;;;;;;;7301493;19;140660;-76
2023/08/20 04:52:46;;;;;;;731.15;443.48;;;;;;;;;;7300607;19;141561;-76
2023/08/20 04:55:15;;;;;;;709.53;439.20;;;;;;;;;;7300056;19;142938;-76
2023/08/20 04:57:42;;;;;;;726.13;442.83;;;;;;;;;;7299906;19;140891;-76
2023/08/20 05:00:09;;;;;;;737.72;448.60;;;;;;;;;;7300666;19;140680;-76
2023/08/20 05:02:36;;;;;;;737.20;447.63;;;;;;;;;;7298994;19;140966;-76
2023/08/20 05:05:04;;;;;;;736.30;446.17;;;;;;;;;;7299966;19;142540;-76
2023/08/20 05:07:32;;;;;;;734.00;445.25;;;;;;;;;;7299533;19;140360;-76
2023/08/20 05:09:59;;;;;;;724.85;447.00;;;;;;;;;;7300098;19;140695;-76
2023/08/20 05:12:26;;;;;;;712.95;450.38;;;;;;;;;;7299034;19;141055;-76
2023/08/20 05:14:53;;;;;;;746.03;456.13;;;;;;;;;;7299473;19;141957;-76
2023/08/20 05:17:20;;;;;;;721.88;450.05;;;;;;;;;;7300082;19;140653;-76
2023/08/20 05:19:47;;;;;;;731.95;457.38;;;;;;;;;;7300049;19;140506;-76
2023/08/20 05:22:14;;;;;;;746.15;459.05;;;;;;;;;;7299129;19;141683;-76
2023/08/20 05:24:41;;;;;;;753.33;460.25;;;;;;;;;;7299492;19;142417;-76
2023/08/20 05:27:09;;;;;;;752.10;462.13;;;;;;;;;;7298900;19;140433;-76
2023/08/20 05:29:37;;;;;;;758.17;465.05;;;;;;;;;;7299251;19;140601;-76
2023/08/20 05:32:04;;;;;;;754.97;464.48;;;;;;;;;;7299108;19;142402;-76
2023/08/20 05:34:31;;;;;;;736.35;459.90;;;;;;;;;;7299025;19;142389;-76
2023/08/20 05:36:59;;;;;;;722.22;453.35;;;;;;;;;;7302357;19;140402;-76
2023/08/20 05:39:26;;;;;;;750.90;461.55;;;;;;;;;;7304671;19;140413;-76
2023/08/20 05:41:53;;;;;;;755.92;465.98;;;;;;;;;;7305256;19;141067;-76
2023/08/20 05:44:21;;;;;;;748.90;464.05;;;;;;;;;;7305999;19;142954;-76
2023/08/20 05:46:48;;;;;;;730.65;461.10;;;;;;;;;;7306483;19;140510;-76
2023/08/20 05:49:18;;;;;;;760.97;468.27;;;;;;;;;;7306621;19;140624;-76
2023/08/20 05:51:45;;;;;;;765.58;473.90;;;;;;;;;;7305885;19;142642;-76
2023/08/20 05:54:12;;;;;;;763.70;471.45;;;;;;;;;;7305939;19;142465;-76
2023/08/20 05:56:39;;;;;;;756.88;469.92;;;;;;;;;;7306178;19;140445;-76
2023/08/20 05:59:06;;;;;;;750.38;470.50;;;;;;;;;;7305339;19;140817;-76
2023/08/20 06:04:22;;;;;;;652.35;379.75;;;;;;;;;;7301394;19;143109;-76
2023/08/20 06:06:49;;;;;;;663.20;389.27;;;;;;;;;;7305767;19;140552;-76
2023/08/20 06:12:05;;;;;;;692.83;413.40;;;;;;;;;;7304367;19;140494;-76
2023/08/20 06:14:32;;;;;;;686.97;421.00;;;;;;;;;;7305509;19;140928;-76
2023/08/20 06:17:00;;;;;;;686.40;412.05;;;;;;;;;;7305632;19;140654;-76
2023/08/20 06:19:27;;;;;;;683.88;416.73;;;;;;;;;;7305238;19;140507;-76
2023/08/20 06:21:54;;;;;;;705.40;420.40;;;;;;;;;;7304758;19;141264;-75
2023/08/20 06:27:23;;;;;;;697.38;406.52;;;;;;;;;;7303443;19;141090;-75
2023/08/20 06:29:50;;;;;;;699.17;410.35;;;;;;;;;;7305339;19;140442;-75
2023/08/20 06:32:17;;;;;;;710.13;417.67;;;;;;;;;;7304704;19;141176;-75
2023/08/20 06:34:45;;;;;;;703.72;412.20;;;;;;;;;;7305080;19;140787;-74
2023/08/20 06:37:11;;;;;;;712.45;418.33;;;;;;;;;;7305610;19;140421;-76
2023/08/20 06:39:38;;;;;;;696.70;419.98;;;;;;;;;;7304577;19;140601;-74
2023/08/20 06:42:05;;;;;;;687.25;410.48;;;;;;;;;;7304608;19;140831;-77
2023/08/20 06:44:33;;;;;;;685.92;415.77;;;;;;;;;;7304229;19;142827;-76
2023/08/20 06:47:00;;;;;;;676.92;410.27;;;;;;;;;;7303682;19;140594;-76
2023/08/20 06:49:27;;;;;;;709.40;418.73;;;;;;;;;;7304609;19;140684;-77
2023/08/20 06:51:54;;;;;;;706.38;413.55;;;;;;;;;;7304873;19;140814;-77
2023/08/20 06:54:21;;;;;;;701.38;412.85;;;;;;;;;;7303902;19;142759;-78
2023/08/20 06:56:48;;;;;;;714.42;425.48;;;;;;;;;;7302771;19;140644;-75
2023/08/20 06:59:17;;;;;;;714.55;422.27;;;;;;;;;;7303403;19;140520;-75
2023/08/20 07:01:44;;;;;;;717.38;427.48;;;;;;;;;;7303489;19;141113;-74
2023/08/20 07:04:12;;;;;;;717.20;428.65;;;;;;;;;;7303308;19;141977;-75
2023/08/20 07:06:39;;;;;;;733.13;433.92;;;;;;;;;;7304089;19;140438;-74
2023/08/20 07:09:06;;;;;;;736.15;439.42;;;;;;;;;;7303594;19;140615;-75
2023/08/20 07:11:33;;;;;;;720.05;428.98;;;;;;;;;;7303468;19;141157;-75
2023/08/20 07:14:00;;;;;;;716.83;430.58;;;;;;;;;;7303079;19;142062;-75
2023/08/20 07:19:30;;;;;;;722.08;430.33;;;;;;;;;;7299128;19;140536;-75
2023/08/20 07:21:57;;;;;;;735.55;443.95;;;;;;;;;;7302984;19;140992;-74
2023/08/20 07:24:29;;;;;;;711.70;429.95;;;;;;;;;;7302959;19;141210;-74
2023/08/20 07:26:59;;;;;;;743.83;454.85;;;;;;;;;;7303798;19;140743;-75
2023/08/20 07:29:26;;;;;;;736.72;452.17;;;;;;;;;;7302620;19;140923;-76
2023/08/20 07:31:53;;;;;;;724.45;450.42;;;;;;;;;;7302891;19;141212;-75
2023/08/20 07:34:20;;;;;;;716.53;446.30;;;;;;;;;;7304251;19;142008;-75
2023/08/20 07:36:47;;;;;;;720.67;446.70;;;;;;;;;;7304414;19;140579;-74
2023/08/20 07:39:17;;;;;;;743.75;446.35;;;;;;;;;;7304057;19;140377;-74
2023/08/20 07:41:44;;;;;;;725.75;443.77;;;;;;;;;;7303318;19;141409;-75
2023/08/20 07:44:11;;;;;;;708.35;437.35;;;;;;;;;;7301290;19;142002;-75
2023/08/20 07:46:38;;;;;;;745.47;448.55;;;;;;;;;;7303032;19;140753;-75
2023/08/20 07:49:06;;;;;;;734.17;447.67;;;;;;;;;;7302979;19;140708;-75
2023/08/20 07:51:34;;;;;;;734.05;451.25;;;;;;;;;;7301945;19;142090;-75
2023/08/20 07:54:01;;;;;;;720.97;451.83;;;;;;;;;;7301900;19;142052;-75
2023/08/20 07:56:28;;;;;;;739.58;466.33;;;;;;;;;;7302440;19;140639;-75
2023/08/20 07:58:55;;;;;;;724.78;461.85;;;;;;;;;;7298218;19;140704;-75
2023/08/20 08:01:22;;;;;;;764.97;470.80;;;;;;;;;;7301841;19;141045;-75
2023/08/20 08:03:49;;;;;;;763.65;468.73;;;;;;;;;;7300040;19;141892;-75
2023/08/20 08:06:17;;;;;;;748.88;464.80;;;;;;;;;;7302347;19;140536;-74
2023/08/20 08:08:44;;;;;;;765.85;468.08;;;;;;;;;;7302118;19;140558;-75
2023/08/20 08:11:11;;;;;;;757.13;466.40;;;;;;;;;;7301184;19;141031;-75
2023/08/20 08:13:38;;;;;;;764.75;471.27;;;;;;;;;;7300545;19;142572;-74
2023/08/20 08:16:05;;;;;;;769.20;467.35;;;;;;;;;;7301970;19;140386;-74
2023/08/20 08:18:33;;;;;;;762.47;469.42;;;;;;;;;;7301182;19;140426;-75
2023/08/20 08:21:00;;;;;;;763.72;471.95;;;;;;;;;;7301352;19;142222;-75
2023/08/20 08:23:27;;;;;;;771.83;474.33;;;;;;;;;;7301466;19;142903;-75
2023/08/20 08:25:54;;;;;;;759.25;472.92;;;;;;;;;;7301166;19;140714;-76
2023/08/20 08:28:21;;;;;;;769.47;481.17;;;;;;;;;;7301172;19;140452;-75
2023/08/20 08:30:49;;;;;;;588.28;330.98;;;;;;;;;;7300877;19;141023;-75
2023/08/20 08:33:16;;;;;;;585.17;332.98;;;;;;;;;;7299390;19;141938;-75
2023/08/20 08:35:43;;;;;;;585.42;330.40;;;;;;;;;;7301321;19;140728;-75
2023/08/20 08:38:10;;;;;;;585.15;331.00;;;;;;;;;;7301380;19;140634;-76
2023/08/20 08:40:40;;;;;;;592.53;340.10;;;;;;;;;;7301190;19;141744;-75
2023/08/20 08:43:07;;;;;;;601.97;341.17;;;;;;;;;;7300088;19;142987;-75
2023/08/20 08:45:34;;;;;;;608.85;346.10;;;;;;;;;;7300820;19;140743;-74
2023/08/20 08:48:02;;;;;;;611.03;347.13;;;;;;;;;;7300974;19;140609;-75
2023/08/20 08:50:30;;;;;;;615.30;350.42;;;;;;;;;;7300570;19;141069;-76
2023/08/20 08:52:59;;;;;;;610.90;346.63;;;;;;;;;;7300434;19;140695;-75
2023/08/20 08:55:26;;;;;;;618.47;349.92;;;;;;;;;;7300939;19;140402;-75
2023/08/20 08:57:53;;;;;;;613.88;350.83;;;;;;;;;;7299842;19;140414;-74
2023/08/20 09:00:20;;;;;;;620.13;351.58;;;;;;;;;;7298740;19;140988;-74
2023/08/20 09:02:47;;;;;;;617.13;349.95;;;;;;;;;;7299750;19;141993;-74
2023/08/20 09:05:14;;;;;;;607.55;346.55;;;;;;;;;;7300581;19;140523;-74
2023/08/20 09:07:44;;;;;;;613.90;348.95;;;;;;;;;;7299998;19;140637;-74
2023/08/20 09:10:11;;;;;;;612.03;346.55;;;;;;;;;;7300859;19;141980;-74
2023/08/20 09:12:39;;;;;;;601.67;347.75;;;;;;;;;;7307262;19;142633;-74
2023/08/20 09:15:09;;;;;;;610.45;345.73;;;;;;;;;;7306260;19;140330;-75
2023/08/20 09:17:36;;;;;;;617.53;348.45;;;;;;;;;;7307540;19;140543;-75
2023/08/20 09:20:04;;;;;;;614.53;351.08;;;;;;;;;;7306680;19;141809;-76
2023/08/20 09:22:31;;;;;;;609.70;351.58;;;;;;;;;;7306975;19;140896;-72
2023/08/20 09:24:59;;;;;;;610.08;349.70;;;;;;;;;;7307809;19;140504;-72
2023/08/20 09:27:26;;;;;;;608.00;352.05;;;;;;;;;;7307104;19;140612;-74
2023/08/20 09:30:04;;;;;;;617.22;354.25;;;;;;;;;;7305965;19;141213;-74
2023/08/20 09:32:31;;;;;;;628.90;355.30;;;;;;;;;;7304867;19;142089;-74
2023/08/20 09:34:58;;;;;;;632.92;358.23;;;;;;;;;;7306484;19;140531;-73
2023/08/20 09:37:25;;;;;;;634.33;363.75;;;;;;;;;;7306596;19;140603;-75
2023/08/20 09:39:52;;;;;;;640.97;363.48;;;;;;;;;;7306266;19;141389;-74
2023/08/20 09:42:20;;;;;;;637.03;363.90;;;;;;;;;;7306266;19;140694;-75
2023/08/20 09:56:31;;;;;;;596.70;336.73;;;;;;;;;;7305837;19;140678;-73
2023/08/20 09:58:58;;;;;;;568.88;328.17;;;;;;;;;;7305685;19;140667;-73
2023/08/20 10:01:26;;;;;;;573.15;327.33;;;;;;;;;;7306076;19;141540;-73
2023/08/20 10:03:54;;;;;;;571.00;325.50;;;;;;;;;;7305241;19;142532;-74
2023/08/20 10:06:21;;;;;;;577.83;324.02;;;;;;;;;;7304410;19;140653;-75
2023/08/20 10:08:50;;;;;;;579.90;327.60;;;;;;;;;;7303794;19;140872;-74
2023/08/20 10:11:17;;;;;;;582.17;328.00;;;;;;;;;;7305428;19;141039;-74
2023/08/20 10:13:44;;;;;;;586.78;330.20;;;;;;;;;;7304424;19;142042;-73
2023/08/20 10:16:12;;;;;;;584.38;329.65;;;;;;;;;;7306232;19;140870;-73
2023/08/20 10:18:39;;;;;;;584.00;331.75;;;;;;;;;;7304883;19;140538;-73
2023/08/20 10:21:10;;;;;;;581.22;334.13;;;;;;;;;;7305047;19;141547;-72
2023/08/20 10:23:37;;;;;;;;;;;;;;;;;;7303123;19;141923;-73
2023/08/20 10:26:07;;;;;;;651.50;364.80;;;;;;;;;;7305172;19;143256;-73
2023/08/20 10:28:35;;;;;;;650.78;367.02;;;;;;;;;;7304935;19;140907;-72
2023/08/20 10:31:07;;;;;;;647.33;365.65;;;;;;;;;;7304435;19;141816;-73
2023/08/20 10:33:37;;;;;;;651.88;367.05;;;;;;;;;;7304772;19;142464;-73
2023/08/20 10:36:08;;;;;;;653.72;371.58;;;;;;;;;;7305132;19;140631;-73
2023/08/20 10:38:36;;;;;;;654.83;371.48;;;;;;;;;;7304313;19;140396;-73
2023/08/20 10:41:06;;;;;;;652.92;371.27;;;;;;;;;;7304326;19;141874;-73
2023/08/20 10:52:47;;;;;;;561.17;315.60;;;;;;;;;;7331780;19;142368;-74
2023/08/20 10:55:15;;;;;;;543.53;305.90;;;;;;;;;;7334654;19;141053;-76
2023/08/20 10:57:42;;;;;;;470.15;259.73;;;;;;;;;;7336258;19;140413;-74
2023/08/20 11:00:11;;;;;;;507.52;284.83;;;;;;;;;;7334876;19;140563;-74
2023/08/20 11:02:39;;;;;;;522.87;290.37;;;;;;;;;;7335784;19;141957;-74
2023/08/20 11:05:21;;;;;;;515.70;286.10;;;;;;;;;;7336017;19;142029;-74
2023/08/20 11:07:48;;;;;;;520.75;294.15;;;;;;;;;;7335053;19;140781;-74
2023/08/20 11:10:16;;;;;;;454.80;255.55;;;;;;;;;;7335630;19;140560;-73
2023/08/20 11:12:45;;;;;;;464.65;262.33;;;;;;;;;;7336539;19;140871;-73
2023/08/20 11:15:13;;;;;;;481.77;268.17;;;;;;;;;;7334665;19;142524;-73
2023/08/20 11:17:49;;;;;;;542.50;304.52;;;;;;;;;;7335897;19;140441;-74
2023/08/20 11:20:17;;;;;;;519.47;287.48;;;;;;;;;;7334980;19;141278;-74
2023/08/20 11:22:44;;;;;;;485.45;275.25;;;;;;;;;;7335270;19;141489;-74
2023/08/20 11:25:14;;;;;;;454.25;254.30;;;;;;;;;;7335374;19;141848;-74
2023/08/20 11:27:42;;;;;;;;;;;;;;;;;;7336191;19;140577;-74
2023/08/20 11:30:10;;;;;;;462.63;255.13;;;;;;;;;;7334717;19;142443;-74
2023/08/20 11:32:38;;;;;;;469.10;255.82;;;;;;;;;;7334840;19;141014;-74
2023/08/20 11:35:05;;;;;;;480.13;261.73;;;;;;;;;;7334281;19;140936;-73
2023/08/20 11:37:34;;;;;;;490.95;274.48;;;;;;;;;;7334453;19;140616;-74
2023/08/20 11:40:01;;;;;;;448.05;246.02;;;;;;;;;;7335351;19;140570;-75
2023/08/20 11:42:28;;;;;;;452.02;247.63;;;;;;;;;;7334612;19;141213;-75
2023/08/20 11:44:56;;;;;;;461.70;258.55;;;;;;;;;;7334115;19;142042;-76
2023/08/20 11:47:23;;;;;;;492.85;278.73;;;;;;;;;;7335124;19;140640;-76
2023/08/20 11:50:07;;;;;;;474.02;264.80;;;;;;;;;;7334645;19;140581;-76
2023/08/20 11:52:35;;;;;;;495.05;270.98;;;;;;;;;;7334307;19;142821;-76
2023/08/20 11:55:03;;;;;;;399.70;214.32;;;;;;;;;;7333178;19;140813;-77
2023/08/20 11:57:31;;;;;;;389.95;209.13;;;;;;;;;;7306159;19;140635;-76
2023/08/20 12:00:13;;;;;;;422.05;228.15;;;;;;;;;;7305044;19;140730;-76
2023/08/20 12:02:40;;;;;;;438.88;243.57;;;;;;;;;;7305477;19;140920;-75
2023/08/20 12:05:07;;;;;;;438.20;235.20;;;;;;;;;;7305161;19;141687;-75
2023/08/20 12:07:34;;;;;;;454.55;246.40;;;;;;;;;;7305018;19;140730;-74
2023/08/20 12:10:21;;;;;;;469.45;261.73;;;;;;;;;;7305117;19;140546;-74
2023/08/20 12:12:48;;;;;;;462.08;249.38;;;;;;;;;;7304882;19;142220;-75
2023/08/20 12:15:17;;;;;;;467.80;254.40;;;;;;;;;;7304605;19;140649;-75
2023/08/20 12:17:54;;;;;;;472.80;257.27;;;;;;;;;;7304834;19;140535;-73
2023/08/20 12:20:22;;;;;;;471.02;255.18;;;;;;;;;;7305433;19;140610;-74
2023/08/20 12:22:49;;;;;;;474.95;262.85;;;;;;;;;;7305103;19;141744;-75
2023/08/20 12:25:16;;;;;;;485.88;269.25;;;;;;;;;;7303673;19;141290;-74
2023/08/20 12:27:43;;;;;;;353.50;191.45;;;;;;;;;;7305225;19;140674;-74
2023/08/20 12:30:10;;;;;;;360.75;200.00;;;;;;;;;;7306221;19;140743;-74
2023/08/20 12:32:37;;;;;;;372.63;205.77;;;;;;;;;;7307352;19;140793;-74
2023/08/20 12:35:05;;;;;;;381.55;207.80;;;;;;;;;;7304901;19;141943;-75
2023/08/20 12:37:32;;;;;;;397.55;218.10;;;;;;;;;;7305089;19;140700;-75
2023/08/20 12:40:00;;;;;;;410.17;224.23;;;;;;;;;;7304764;19;140786;-75
2023/08/20 12:42:27;;;;;;;430.10;234.18;;;;;;;;;;7304291;19;141850;-75
2023/08/20 12:44:54;;;;;;;458.42;248.88;;;;;;;;;;7303379;19;142401;-75
2023/08/20 12:47:21;;;;;;;499.05;272.70;;;;;;;;;;7304230;19;140664;-75
2023/08/20 12:49:48;;;;;;;430.27;235.90;;;;;;;;;;7304676;19;141257;-76
2023/08/20 12:52:16;;;;;;;468.02;254.32;;;;;;;;;;7303301;19;141882;-75
2023/08/20 12:54:43;;;;;;;479.73;264.58;;;;;;;;;;7303935;19;141852;-76
2023/08/20 12:57:12;;;;;;;491.70;272.67;;;;;;;;;;7304498;19;140556;-75
2023/08/20 12:59:39;;;;;;;496.27;273.02;;;;;;;;;;7302959;19;140861;-75
2023/08/20 13:02:07;;;;;;;498.92;272.77;;;;;;;;;;7303847;19;141801;-75
2023/08/20 13:04:34;;;;;;;490.17;272.35;;;;;;;;;;7303848;19;141877;-75
2023/08/20 13:07:01;;;;;;;496.75;270.65;;;;;;;;;;7301021;19;140832;-76
2023/08/20 13:09:28;;;;;;;511.15;288.08;;;;;;;;;;7300873;19;140485;-76
2023/08/20 13:11:57;;;;;;;504.85;285.48;;;;;;;;;;7303575;19;141159;-75
2023/08/20 13:14:24;;;;;;;457.48;252.07;;;;;;;;;;7302568;19;141983;-74
2023/08/20 13:16:51;;;;;;;474.42;263.25;;;;;;;;;;7303547;19;140668;-76
2023/08/20 13:19:18;;;;;;;467.05;254.32;;;;;;;;;;7303077;19;141298;-75
2023/08/20 13:21:45;;;;;;;470.63;256.17;;;;;;;;;;7303734;19;140922;-75
2023/08/20 13:24:12;;;;;;;464.95;255.77;;;;;;;;;;7303085;19;142336;-75
2023/08/20 13:26:39;;;;;;;462.50;249.13;;;;;;;;;;7303175;19;140497;-75
2023/08/20 13:29:06;;;;;;;476.30;262.13;;;;;;;;;;7303152;19;140635;-75
2023/08/20 13:31:35;;;;;;;448.25;243.43;;;;;;;;;;7302163;19;141776;-75
2023/08/20 13:34:02;;;;;;;453.17;243.50;;;;;;;;;;7300877;19;142004;-75
2023/08/20 13:36:30;;;;;;;445.92;238.82;;;;;;;;;;7302769;19;140436;-75
2023/08/20 13:38:57;;;;;;;442.92;236.32;;;;;;;;;;7301187;19;140378;-74
2023/08/20 13:41:24;;;;;;;433.67;231.38;;;;;;;;;;7302865;19;141213;-73
2023/08/20 13:49:43;;;;;;;305.75;169.50;;;;;;;;;;7293405;19;144162;-74
2023/08/20 13:52:10;;;;;;;312.67;173.07;;;;;;;;;;7301248;19;141086;-74
2023/08/20 13:54:37;;;;;;;308.65;171.02;;;;;;;;;;7300035;19;141336;-75
2023/08/20 13:57:04;;;;;;;303.05;167.18;;;;;;;;;;7302352;19;140601;-73
2023/08/20 13:59:31;;;;;;;305.95;167.15;;;;;;;;;;7300870;19;140520;-74
2023/08/20 14:01:58;;;;;;;301.40;164.60;;;;;;;;;;7299636;19;141685;-73
2023/08/20 14:04:25;;;;;;;311.10;170.55;;;;;;;;;;7301779;19;141821;-73
2023/08/20 14:06:52;;;;;;;293.63;159.88;;;;;;;;;;7301927;19;140476;-74
2023/08/20 14:09:20;;;;;;;299.00;163.27;;;;;;;;;;7301735;19;140666;-74
2023/08/20 14:11:47;;;;;;;303.95;166.55;;;;;;;;;;7301497;19;141678;-74
2023/08/20 14:14:14;;;;;;;302.20;164.70;;;;;;;;;;7301517;19;142419;-74
2023/08/20 14:16:41;;;;;;;311.02;172.15;;;;;;;;;;7300715;19;141287;-75
2023/08/20 14:19:08;;;;;;;306.63;167.85;;;;;;;;;;7301045;19;140654;-75
2023/08/20 14:21:36;;;;;;;311.73;169.80;;;;;;;;;;7299772;19;142280;-74
2023/08/20 14:24:03;;;;;;;302.45;164.02;;;;;;;;;;7300838;19;141887;-76
2023/08/20 14:26:30;;;;;;;307.05;166.85;;;;;;;;;;7301143;19;140671;-75
2023/08/20 14:28:57;;;;;;;297.95;162.80;;;;;;;;;;7300874;19;140497;-74